createdAt,value
2019-02-11T00:02:04.421Z,5.10
2019-02-11T00:04:32.665Z,5.04
2019-02-11T00:07:01.108Z,5.04
2019-02-11T00:09:29.558Z,5.02
2019-02-11T00:11:58.019Z,5.00
2019-02-11T00:14:26.473Z,4.99
2019-02-11T00:16:54.950Z,4.99
2019-02-11T00:19:23.179Z,4.90
2019-02-11T00:21:51.423Z,4.90
2019-02-11T00:24:19.665Z,4.90
2019-02-11T00:26:47.899Z,4.86
2019-02-11T00:29:16.156Z,4.86
2019-02-11T00:31:44.397Z,4.86
2019-02-11T00:34:12.630Z,4.85
2019-02-11T00:36:40.865Z,4.83
2019-02-11T00:39:09.101Z,4.80
2019-02-11T00:41:37.562Z,4.78
2019-02-11T00:44:05.856Z,4.71
2019-02-11T00:46:34.254Z,4.71
2019-02-11T00:49:02.711Z,4.68
2019-02-11T00:51:30.943Z,4.68
2019-02-11T00:53:59.171Z,4.50
2019-02-11T00:56:27.667Z,4.50
2019-02-11T00:58:56.143Z,4.55
2019-02-11T01:01:24.390Z,4.65
2019-02-11T01:03:52.729Z,4.65
2019-02-11T01:06:20.989Z,4.59
2019-02-11T01:08:49.214Z,4.64
2019-02-11T01:11:17.467Z,4.58
2019-02-11T01:13:45.713Z,4.59
2019-02-11T01:16:14.196Z,4.59
2019-02-11T01:18:42.435Z,4.49
2019-02-11T01:21:10.914Z,4.57
2019-02-11T01:23:39.374Z,4.43
2019-02-11T01:26:07.920Z,4.51
2019-02-11T01:28:36.168Z,4.48
2019-02-11T01:31:04.409Z,4.50
2019-02-11T01:33:32.647Z,4.49
2019-02-11T01:36:00.941Z,4.49
2019-02-11T01:38:29.181Z,4.47
2019-02-11T01:40:57.416Z,4.48
2019-02-11T01:43:25.647Z,4.48
2019-02-11T01:45:54.132Z,4.37
2019-02-11T01:48:22.372Z,4.26
2019-02-11T01:50:50.613Z,4.26
2019-02-11T01:53:18.867Z,4.41
2019-02-11T01:55:47.094Z,4.45
2019-02-11T01:58:15.338Z,4.41
2019-02-11T02:00:43.560Z,4.43
2019-02-11T02:03:11.794Z,4.20
2019-02-11T02:05:40.029Z,4.37
2019-02-11T02:08:08.258Z,4.37
2019-02-11T02:10:36.493Z,4.38
2019-02-11T02:13:04.806Z,4.34
2019-02-11T02:15:33.046Z,4.35
2019-02-11T02:18:01.352Z,4.23
2019-02-11T02:20:29.914Z,4.31
2019-02-11T02:22:58.146Z,4.32
2019-02-11T02:25:26.676Z,4.31
2019-02-11T02:27:54.969Z,4.35
2019-02-11T02:30:23.147Z,4.17
2019-02-11T02:32:51.375Z,4.17
2019-02-11T02:35:19.619Z,4.37
2019-02-11T02:37:47.841Z,4.31
2019-02-11T02:40:16.077Z,4.30
2019-02-11T02:42:44.615Z,4.30
2019-02-11T02:45:13.093Z,4.37
2019-02-11T02:47:41.326Z,4.39
2019-02-11T02:50:10.472Z,4.39
2019-02-11T02:52:38.698Z,4.39
2019-02-11T02:55:08.175Z,4.28
2019-02-11T02:57:36.436Z,4.37
2019-02-11T03:00:07.890Z,4.26
2019-02-11T03:02:36.357Z,4.26
2019-02-11T03:05:06.531Z,4.32
2019-02-11T03:07:34.994Z,4.36
2019-02-11T03:10:04.160Z,4.36
2019-02-11T03:12:32.387Z,4.23
2019-02-11T03:15:00.643Z,4.23
2019-02-11T03:17:28.911Z,4.25
2019-02-11T03:19:57.151Z,4.30
2019-02-11T03:22:25.648Z,4.30
2019-02-11T03:24:54.149Z,4.17
2019-02-11T03:27:22.419Z,4.17
2019-02-11T03:29:50.905Z,4.17
2019-02-11T03:32:19.599Z,4.19
2019-02-11T03:34:48.108Z,4.26
2019-02-11T03:37:16.344Z,4.26
2019-02-11T03:39:44.633Z,4.19
2019-02-11T03:42:13.213Z,4.26
2019-02-11T03:44:41.425Z,4.29
2019-02-11T03:47:09.657Z,4.31
2019-02-11T03:49:37.897Z,4.31
2019-02-11T03:52:06.412Z,4.43
2019-02-11T03:54:34.633Z,4.42
2019-02-11T03:57:03.190Z,4.44
2019-02-11T03:59:31.652Z,4.29
2019-02-11T04:01:59.996Z,4.29
2019-02-11T04:04:28.195Z,4.29
2019-02-11T04:06:56.429Z,4.38
2019-02-11T04:09:24.972Z,4.41
2019-02-11T04:11:53.199Z,4.34
2019-02-11T04:14:24.985Z,4.24
2019-02-11T04:16:51.636Z,4.24
2019-02-11T04:19:19.865Z,4.43
2019-02-11T04:21:49.767Z,4.45
2019-02-11T04:24:17.989Z,4.35
2019-02-11T04:26:46.226Z,4.41
2019-02-11T04:29:14.459Z,4.41
2019-02-11T04:31:42.699Z,4.32
2019-02-11T04:34:11.162Z,4.32
2019-02-11T04:36:39.613Z,4.36
2019-02-11T04:39:08.060Z,4.35
2019-02-11T04:41:36.543Z,4.34
2019-02-11T04:44:04.783Z,4.20
2019-02-11T04:46:33.007Z,4.22
2019-02-11T04:49:01.231Z,4.22
2019-02-11T04:51:29.468Z,4.17
2019-02-11T04:53:57.944Z,4.01
2019-02-11T04:56:26.173Z,4.15
2019-02-11T04:58:54.710Z,4.15
2019-02-11T05:01:22.946Z,4.13
2019-02-11T05:03:51.401Z,4.13
2019-02-11T05:06:19.871Z,4.07
2019-02-11T05:08:48.430Z,4.16
2019-02-11T05:11:16.663Z,4.06
2019-02-11T05:13:45.184Z,4.06
2019-02-11T05:16:13.633Z,4.14
2019-02-11T05:18:41.866Z,4.12
2019-02-11T05:21:10.439Z,4.10
2019-02-11T05:23:38.665Z,4.15
2019-02-11T05:26:06.927Z,4.15
2019-02-11T05:28:35.168Z,4.06
2019-02-11T05:31:03.393Z,4.08
2019-02-11T05:33:31.634Z,4.08
2019-02-11T05:36:00.194Z,4.18
2019-02-11T05:38:28.669Z,4.21
2019-02-11T05:40:56.886Z,4.18
2019-02-11T05:43:25.432Z,4.18
2019-02-11T05:45:53.656Z,4.05
2019-02-11T05:48:21.920Z,4.16
2019-02-11T05:50:50.152Z,4.17
2019-02-11T05:53:18.390Z,4.05
2019-02-11T05:55:46.622Z,4.11
2019-02-11T05:58:14.918Z,4.01
2019-02-11T06:00:43.158Z,4.01
2019-02-11T06:03:11.399Z,3.96
2019-02-11T06:05:39.626Z,3.96
2019-02-11T06:08:07.921Z,3.86
2019-02-11T06:10:36.481Z,3.94
2019-02-11T06:13:04.930Z,3.93
2019-02-11T06:15:33.167Z,3.93
2019-02-11T06:18:01.403Z,3.93
2019-02-11T06:20:29.897Z,3.90
2019-02-11T06:22:58.121Z,3.89
2019-02-11T06:25:26.370Z,3.89
2019-02-11T06:27:54.807Z,3.87
2019-02-11T06:30:23.316Z,3.88
2019-02-11T06:32:51.558Z,3.73
2019-02-11T06:35:19.785Z,3.73
2019-02-11T06:37:48.274Z,3.78
2019-02-11T06:40:16.511Z,3.80
2019-02-11T06:42:44.748Z,3.81
2019-02-11T06:45:13.572Z,3.84
2019-02-11T06:47:42.176Z,3.80
2019-02-11T06:50:13.481Z,3.94
2019-02-11T06:52:41.718Z,3.87
2019-02-11T06:55:11.839Z,3.87
2019-02-11T06:57:40.061Z,4.01
2019-02-11T07:00:13.039Z,4.05
2019-02-11T07:02:41.262Z,4.08
2019-02-11T07:05:09.794Z,4.17
2019-02-11T07:07:38.255Z,4.24
2019-02-11T07:10:11.456Z,4.24
2019-02-11T07:12:39.676Z,4.27
2019-02-11T07:15:21.305Z,4.36
2019-02-11T07:17:42.926Z,4.38
2019-02-11T07:20:11.554Z,4.46
2019-02-11T07:22:39.781Z,4.56
2019-02-11T07:25:08.978Z,4.55
2019-02-11T07:27:37.208Z,4.55
2019-02-11T07:30:08.682Z,4.65
2019-02-11T07:32:36.909Z,4.67
2019-02-11T07:35:05.615Z,4.58
2019-02-11T07:37:34.146Z,4.58
2019-02-11T07:40:02.553Z,4.74
2019-02-11T07:42:38.379Z,4.78
2019-02-11T07:45:10.912Z,4.81
2019-02-11T07:47:39.154Z,4.85
2019-02-11T07:50:07.457Z,4.90
2019-02-11T07:52:35.699Z,4.89
2019-02-11T07:55:05.397Z,4.93
2019-02-11T07:57:33.637Z,4.93
2019-02-11T08:00:02.096Z,4.95
2019-02-11T08:02:30.337Z,4.96
2019-02-11T08:04:58.570Z,5.00
2019-02-11T08:07:26.793Z,5.02
2019-02-11T08:09:55.250Z,5.03
2019-02-11T08:12:23.476Z,5.04
2019-02-11T08:14:51.710Z,4.96
2019-02-11T08:17:19.943Z,5.00
2019-02-11T08:19:48.180Z,5.00
2019-02-11T08:22:16.402Z,5.16
2019-02-11T08:24:44.621Z,5.16
2019-02-11T08:27:13.188Z,5.20
2019-02-11T08:29:41.637Z,5.20
2019-02-11T08:32:10.092Z,5.23
2019-02-11T08:34:38.546Z,5.24
2019-02-11T08:37:07.079Z,5.14
2019-02-11T08:39:35.525Z,5.12
2019-02-11T08:42:04.000Z,5.10
2019-02-11T08:44:33.623Z,5.06
2019-02-11T08:47:02.177Z,5.18
2019-02-11T08:49:30.398Z,5.18
2019-02-11T08:51:58.635Z,5.18
2019-02-11T08:54:26.859Z,5.21
2019-02-11T08:56:55.108Z,5.21
2019-02-11T08:59:23.341Z,5.23
2019-02-11T09:01:51.854Z,5.24
2019-02-11T09:04:20.320Z,5.25
2019-02-11T09:06:48.559Z,5.24
2019-02-11T09:09:17.098Z,5.19
2019-02-11T09:11:45.592Z,5.30
2019-02-11T09:14:14.041Z,5.31
2019-02-11T09:16:42.277Z,5.31
2019-02-11T09:19:10.509Z,5.28
2019-02-11T09:21:38.810Z,5.38
2019-02-11T09:24:07.269Z,5.30
2019-02-11T09:26:35.737Z,5.30
2019-02-11T09:29:03.973Z,5.25
2019-02-11T09:31:32.427Z,5.23
2019-02-11T09:34:00.651Z,5.18
2019-02-11T09:36:29.138Z,5.14
2019-02-11T09:38:57.382Z,5.05
2019-02-11T09:41:25.701Z,5.05
2019-02-11T09:43:53.932Z,5.15
2019-02-11T09:46:22.468Z,5.16
2019-02-11T09:48:50.760Z,5.14
2019-02-11T09:51:19.737Z,5.16
2019-02-11T09:53:48.058Z,5.16
2019-02-11T09:56:16.290Z,5.20
2019-02-11T09:58:44.528Z,5.25
2019-02-11T10:01:12.977Z,5.25
2019-02-11T10:03:41.209Z,5.27
2019-02-11T10:06:09.439Z,5.27
2019-02-11T10:08:37.901Z,5.27
2019-02-11T10:11:06.352Z,5.30
2019-02-11T10:13:34.816Z,5.30
2019-02-11T10:16:03.382Z,5.29
2019-02-11T10:18:31.628Z,5.35
2019-02-11T10:20:59.853Z,5.34
2019-02-11T10:23:28.087Z,5.37
2019-02-11T10:25:56.305Z,5.36
2019-02-11T10:28:24.837Z,5.36
2019-02-11T10:30:53.317Z,5.38
2019-02-11T10:33:21.553Z,5.37
2019-02-11T10:35:49.809Z,5.35
2019-02-11T10:38:18.043Z,5.28
2019-02-11T10:40:46.265Z,5.34
2019-02-11T10:43:14.725Z,5.34
2019-02-11T10:45:43.196Z,5.27
2019-02-11T10:48:11.436Z,5.24
2019-02-11T10:50:39.658Z,5.20
2019-02-11T10:53:07.892Z,5.19
2019-02-11T10:55:36.423Z,5.35
2019-02-11T10:58:04.687Z,5.23
2019-02-11T11:00:33.569Z,5.30
2019-02-11T11:03:02.045Z,5.30
2019-02-11T11:05:30.501Z,5.21
2019-02-11T11:07:58.965Z,5.30
2019-02-11T11:10:30.359Z,5.30
2019-02-11T11:12:58.670Z,5.31
2019-02-11T11:15:28.951Z,5.34
2019-02-11T11:17:57.068Z,5.29
2019-02-11T11:20:25.430Z,5.32
2019-02-11T11:22:53.729Z,5.31
2019-02-11T11:25:21.949Z,5.27
2019-02-11T11:27:50.186Z,5.23
2019-02-11T11:30:19.434Z,5.21
2019-02-11T11:32:48.154Z,5.11
2019-02-11T11:35:17.955Z,5.18
2019-02-11T11:37:46.191Z,5.18
2019-02-11T11:40:21.997Z,5.12
2019-02-11T11:42:50.476Z,5.12
2019-02-11T11:45:19.665Z,5.22
2019-02-11T11:47:48.165Z,5.22
2019-02-11T11:50:17.716Z,5.22
2019-02-11T11:52:45.924Z,5.22
2019-02-11T11:55:19.750Z,5.25
2019-02-11T11:57:48.060Z,5.17
2019-02-11T12:00:21.985Z,5.17
2019-02-11T12:03:02.159Z,5.35
2019-02-11T12:05:20.614Z,5.35
2019-02-11T12:07:48.811Z,5.34
2019-02-11T12:10:17.717Z,5.32
2019-02-11T12:12:45.950Z,5.32
2019-02-11T12:15:16.937Z,5.32
2019-02-11T12:17:46.714Z,5.33
2019-02-11T12:20:15.693Z,5.35
2019-02-11T12:22:43.904Z,5.35
2019-02-11T12:25:14.178Z,5.28
2019-02-11T12:27:42.516Z,5.28
2019-02-11T12:30:16.986Z,5.41
2019-02-11T12:32:45.191Z,5.41
2019-02-11T12:35:14.173Z,5.44
2019-02-11T12:37:42.391Z,5.47
2019-02-11T12:40:11.840Z,5.50
2019-02-11T12:42:40.058Z,5.54
2019-02-11T12:45:13.904Z,5.62
2019-02-11T12:47:42.135Z,5.67
2019-02-11T12:50:12.939Z,5.71
2019-02-11T12:52:41.465Z,5.76
2019-02-11T12:55:11.625Z,5.85
2019-02-11T12:57:39.854Z,5.94
2019-02-11T13:00:10.927Z,6.03
2019-02-11T13:02:39.121Z,6.07
2019-02-11T13:07:46.623Z,6.08
2019-02-11T13:10:20.425Z,6.05
2019-02-11T13:12:48.708Z,6.11
2019-02-11T13:15:42.007Z,6.09
2019-02-11T13:17:47.975Z,6.06
2019-02-11T13:20:19.637Z,6.07
2019-02-11T13:22:48.196Z,6.04
2019-02-11T13:25:17.439Z,6.02
2019-02-11T13:27:45.665Z,6.04
2019-02-11T13:30:19.802Z,6.04
2019-02-11T13:32:48.066Z,6.10
2019-02-11T13:35:16.400Z,6.13
2019-02-11T13:37:44.805Z,6.18
2019-02-11T13:40:13.286Z,6.33
2019-02-11T13:42:41.699Z,6.34
2019-02-11T13:45:12.581Z,6.53
2019-02-11T13:47:53.282Z,6.66
2019-02-11T13:50:23.382Z,6.73
2019-02-11T13:52:51.757Z,6.75
2019-02-11T13:55:20.038Z,6.75
2019-02-11T13:57:48.607Z,6.79
2019-02-11T14:00:21.047Z,6.75
2019-02-11T14:02:51.756Z,6.76
2019-02-11T14:05:20.203Z,6.80
2019-02-11T14:07:48.440Z,6.93
2019-02-11T14:10:16.741Z,7.03
2019-02-11T14:12:45.054Z,7.13
2019-02-11T14:15:13.274Z,7.24
2019-02-11T14:17:41.522Z,7.31
2019-02-11T14:20:15.362Z,7.36
2019-02-11T14:22:43.622Z,7.39
2019-02-11T14:25:11.858Z,7.42
2019-02-11T14:27:40.940Z,7.44
2019-02-11T14:30:15.292Z,7.43
2019-02-11T14:32:44.057Z,7.43
2019-02-11T14:35:12.354Z,7.39
2019-02-11T14:37:40.586Z,7.34
2019-02-11T14:40:10.451Z,7.31
2019-02-11T14:42:38.682Z,7.32
2019-02-11T14:45:12.643Z,7.37
2019-02-11T14:47:44.198Z,7.39
2019-02-11T14:50:11.131Z,7.39
2019-02-11T14:52:39.373Z,7.36
2019-02-11T14:55:09.363Z,7.28
2019-02-11T14:57:37.828Z,7.16
2019-02-11T15:00:13.671Z,7.08
2019-02-11T15:02:41.909Z,7.05
2019-02-11T15:05:10.209Z,6.99
2019-02-11T15:07:38.677Z,7.00
2019-02-11T15:10:09.444Z,7.01
2019-02-11T15:12:37.687Z,6.95
2019-02-11T15:15:10.214Z,6.90
2019-02-11T15:17:39.593Z,6.90
2019-02-11T15:20:10.064Z,6.87
2019-02-11T15:22:38.306Z,6.99
2019-02-11T15:25:09.477Z,7.11
2019-02-11T15:27:38.266Z,7.16
2019-02-11T15:30:09.380Z,7.17
2019-02-11T15:32:37.856Z,7.13
2019-02-11T15:35:07.987Z,7.07
2019-02-11T15:37:36.295Z,7.00
2019-02-11T15:40:13.700Z,6.91
2019-02-11T15:42:41.951Z,6.86
2019-02-11T15:45:12.957Z,6.82
2019-02-11T15:47:41.424Z,6.76
2019-02-11T15:50:11.596Z,6.70
2019-02-11T15:52:40.133Z,6.62
2019-02-11T15:55:10.970Z,6.59
2019-02-11T15:57:39.208Z,6.57
2019-02-11T16:00:10.608Z,6.52
2019-02-11T16:02:38.845Z,6.45
2019-02-11T16:05:12.374Z,6.34
2019-02-11T16:07:38.767Z,6.27
2019-02-11T16:10:10.031Z,6.18
2019-02-11T16:12:38.269Z,6.10
2019-02-11T16:15:09.168Z,6.03
2019-02-11T16:17:37.648Z,5.98
2019-02-11T16:20:08.641Z,5.91
2019-02-11T16:22:36.867Z,5.88
2019-02-11T16:25:07.873Z,5.84
2019-02-11T16:27:36.098Z,5.82
2019-02-11T16:30:07.549Z,5.81
2019-02-11T16:32:35.845Z,5.78
2019-02-11T16:35:05.452Z,5.74
2019-02-11T16:37:33.699Z,5.70
2019-02-11T16:40:02.245Z,5.66
2019-02-11T16:42:30.469Z,5.65
2019-02-11T16:44:58.994Z,5.61
2019-02-11T16:47:27.229Z,5.40
2019-02-11T16:49:55.569Z,5.40
2019-02-11T16:52:24.009Z,5.51
2019-02-11T16:54:52.256Z,5.39
2019-02-11T16:57:20.495Z,5.39
2019-02-11T16:59:48.725Z,5.44
2019-02-11T17:02:17.217Z,5.36
2019-02-11T17:04:45.425Z,5.38
2019-02-11T17:07:13.661Z,5.19
2019-02-11T17:09:42.133Z,5.25
2019-02-11T17:12:10.357Z,5.25
2019-02-11T17:14:38.828Z,5.13
2019-02-11T17:24:46.439Z,5.05
2019-02-11T17:34:32.962Z,5.01
2019-02-11T17:37:01.247Z,4.98
2019-02-11T17:39:29.486Z,4.98
2019-02-11T17:41:57.738Z,5.06
2019-02-11T17:44:25.954Z,5.04
2019-02-11T17:46:54.418Z,5.01
2019-02-11T17:49:22.655Z,4.99
2019-02-11T17:51:51.131Z,4.99
2019-02-11T17:54:19.362Z,4.97
2019-02-11T17:56:47.898Z,4.97
2019-02-11T17:59:16.359Z,4.95
2019-02-11T18:01:44.605Z,4.88
2019-02-11T18:04:12.842Z,4.85
2019-02-11T18:06:41.079Z,4.98
2019-02-11T18:09:09.816Z,4.98
2019-02-11T18:11:38.129Z,4.99
2019-02-11T18:14:06.593Z,4.85
2019-02-11T18:16:34.864Z,4.85
2019-02-11T18:19:03.121Z,4.84
2019-02-11T18:21:32.814Z,4.79
2019-02-11T18:24:01.665Z,4.79
2019-02-11T18:26:30.602Z,4.65
2019-02-11T18:28:58.840Z,4.60
2019-02-11T18:31:27.349Z,4.63
2019-02-11T18:33:55.590Z,4.43
2019-02-11T18:36:23.822Z,4.45
2019-02-11T18:38:52.307Z,4.39
2019-02-11T18:41:20.535Z,4.32
2019-02-11T18:43:49.012Z,4.16
2019-02-11T18:46:17.259Z,4.19
2019-02-11T18:48:45.720Z,4.19
2019-02-11T18:51:14.215Z,4.00
2019-02-11T18:53:42.495Z,4.00
2019-02-11T18:56:10.722Z,4.03
2019-02-11T18:58:38.970Z,3.92
2019-02-11T19:01:07.205Z,4.02
2019-02-11T19:03:35.451Z,4.02
2019-02-11T19:06:03.691Z,3.93
2019-02-11T19:08:32.152Z,3.99
2019-02-11T19:11:00.384Z,3.99
2019-02-11T19:13:28.629Z,3.97
2019-02-11T19:15:56.861Z,3.97
2019-02-11T19:18:25.099Z,3.86
2019-02-11T19:20:53.582Z,3.86
2019-02-11T19:23:22.058Z,4.00
2019-02-11T19:25:50.308Z,3.98
2019-02-11T19:28:18.917Z,3.95
2019-02-11T19:30:47.419Z,3.83
2019-02-11T19:33:15.983Z,3.89
2019-02-11T19:35:44.586Z,3.85
2019-02-11T19:38:13.101Z,3.81
2019-02-11T19:40:41.336Z,3.80
2019-02-11T19:43:09.576Z,3.67
2019-02-11T19:45:37.811Z,3.86
2019-02-11T19:48:06.309Z,3.92
2019-02-11T19:50:34.769Z,3.92
2019-02-11T19:53:03.233Z,3.87
2019-02-11T19:55:31.717Z,3.98
2019-02-11T19:58:00.204Z,4.03
2019-02-11T20:00:28.702Z,4.13
2019-02-11T20:02:56.941Z,4.17
2019-02-11T20:05:25.208Z,4.17
2019-02-11T20:07:53.438Z,4.16
2019-02-11T20:10:23.283Z,4.18
2019-02-11T20:12:51.769Z,4.18
2019-02-11T20:15:25.838Z,4.14
2019-02-11T20:17:54.295Z,4.08
2019-02-11T20:20:22.904Z,4.09
2019-02-11T20:22:51.141Z,4.07
2019-02-11T20:25:19.455Z,4.07
2019-02-11T20:27:47.684Z,3.95
2019-02-11T20:30:19.168Z,3.91
2019-02-11T20:32:47.650Z,3.91
2019-02-11T20:35:16.130Z,4.02
2019-02-11T20:37:44.618Z,3.75
2019-02-11T20:40:15.600Z,3.99
2019-02-11T20:42:43.836Z,3.98
2019-02-11T20:45:15.008Z,3.91
2019-02-11T20:47:43.254Z,3.86
2019-02-11T20:50:12.222Z,3.86
2019-02-11T20:52:40.739Z,3.82
2019-02-11T20:55:11.718Z,3.67
2019-02-11T20:57:40.177Z,3.77
2019-02-11T21:00:16.629Z,3.62
2019-02-11T21:02:44.940Z,3.61
2019-02-11T21:05:13.469Z,3.61
2019-02-11T21:07:41.706Z,3.56
2019-02-11T21:10:12.542Z,3.46
2019-02-11T21:12:40.787Z,3.28
2019-02-11T21:15:12.124Z,3.28
2019-02-11T21:17:40.596Z,3.18
2019-02-11T21:20:17.563Z,3.10
2019-02-11T21:22:45.272Z,3.08
2019-02-11T21:25:13.590Z,2.91
2019-02-11T21:27:42.059Z,2.92
2019-02-11T21:30:12.429Z,3.01
2019-02-11T21:32:40.915Z,2.98
2019-02-11T21:35:10.907Z,2.57
2019-02-11T21:37:40.026Z,2.85
2019-02-11T21:40:08.495Z,2.80
2019-02-11T21:42:36.748Z,2.74
2019-02-11T21:45:07.768Z,2.67
2019-02-11T21:47:36.224Z,2.59
2019-02-11T21:50:07.066Z,2.56
2019-02-11T21:52:35.531Z,2.49
2019-02-11T21:55:05.045Z,2.45
2019-02-11T21:57:33.499Z,2.39
2019-02-11T22:00:01.738Z,2.35
2019-02-11T22:02:29.971Z,2.30
2019-02-11T22:04:58.238Z,2.26
2019-02-11T22:07:26.492Z,2.26
2019-02-11T22:09:54.961Z,2.22
2019-02-11T22:12:23.198Z,2.18
2019-02-11T22:14:51.439Z,2.18
2019-02-11T22:17:19.668Z,2.15
2019-02-11T22:19:47.917Z,2.15
2019-02-11T22:22:16.150Z,2.16
2019-02-11T22:24:44.391Z,2.17
2019-02-11T22:27:12.876Z,2.20
2019-02-11T22:29:41.112Z,2.25
2019-02-11T22:32:09.339Z,2.30
2019-02-11T22:34:37.590Z,2.29
2019-02-11T22:37:05.825Z,2.26
2019-02-11T22:39:34.061Z,2.21
2019-02-11T22:42:02.293Z,2.16
2019-02-11T22:44:30.764Z,2.09
2019-02-11T22:46:58.998Z,2.03
2019-02-11T22:49:27.243Z,1.98
2019-02-11T22:51:55.473Z,1.94
2019-02-11T22:54:23.953Z,1.95
2019-02-11T22:56:52.407Z,1.96
2019-02-11T22:59:20.653Z,1.94
2019-02-11T23:01:48.881Z,1.94
2019-02-11T23:04:17.113Z,1.92
2019-02-11T23:06:45.355Z,1.89
2019-02-11T23:09:13.663Z,1.87
2019-02-11T23:11:42.130Z,1.87
2019-02-11T23:14:10.359Z,1.94
2019-02-11T23:16:38.838Z,2.01
2019-02-11T23:19:07.321Z,2.13
2019-02-11T23:21:35.557Z,2.21
2019-02-11T23:24:04.011Z,2.27
2019-02-11T23:26:32.261Z,2.28
2019-02-11T23:29:00.510Z,2.27
2019-02-11T23:31:28.982Z,2.24
2019-02-11T23:33:57.470Z,2.24
2019-02-11T23:36:25.739Z,2.22
2019-02-11T23:38:53.969Z,2.21
2019-02-11T23:41:22.453Z,2.17
2019-02-11T23:43:50.702Z,2.14
2019-02-11T23:46:18.947Z,2.16
2019-02-11T23:48:47.402Z,2.14
2019-02-11T23:51:15.635Z,2.15
2019-02-11T23:53:43.868Z,2.16
2019-02-11T23:56:12.103Z,2.21
2019-02-11T23:58:40.565Z,2.27
